Latest Weather Observations for Sellicks Hill

IDS60801

Issued at 11:05 am CST Friday 1 August 2014 (issued every 30 minutes, with the page automatically refreshed every 10 minutes)

About weather observations | Map of weather stations | Latest weather observations for SA | Other Formats
Station Details ID: 023886 Name: MOUNT TERRIBLE RADAR Lat: -35.33 Lon: 138.50 Height: 385.7 m
Data from the previous 72 hours. | See also: Recent months for locations in South Australia
Date/Time
CST
Temp
°C
App
Temp
°C
Dew
Point
Rel
Hum
%
Delta-T
°C
Wind Press
QNH
hPa
Press
MSL
hPa
Rain
since 9 am
mm
Dir
 
Spd
km/h
Gust
km/h
Spd
kts
Gust
kts
01/11:00am - - - - - SW 17 30 9 16 - - -
01/10:30am - - - - - SW 20 41 11 22 - - -
01/10:00am - - - - - SW 13 26 7 14 - - -
01/09:38am - - - - - SW 30 43 16 23 - - -
01/09:30am - - - - - SW 9 20 5 11 - - -
01/09:00am - - - - - WSW 15 43 8 23 - - -
01/08:30am - - - - - SW 22 44 12 24 - - -
01/08:00am - - - - - SW 17 37 9 20 - - -
01/07:30am - - - - - SW 19 41 10 22 - - -
01/07:00am - - - - - WSW 17 37 9 20 - - -
01/06:30am - - - - - WSW 20 43 11 23 - - -
01/06:00am - - - - - W 19 48 10 26 - - -
01/05:30am - - - - - W 19 37 10 20 - - -
01/05:00am - - - - - W 20 33 11 18 - - -
01/04:30am - - - - - W 24 57 13 31 - - -
01/04:00am - - - - - W 20 44 11 24 - - -
01/03:30am - - - - - W 20 50 11 27 - - -
01/03:00am - - - - - W 20 37 11 20 - - -
01/02:30am - - - - - W 20 43 11 23 - - -
01/02:00am - - - - - WNW 22 39 12 21 - - -
01/01:30am - - - - - WNW 19 41 10 22 - - -
01/01:00am - - - - - WNW 22 41 12 22 - - -
01/12:30am - - - - - WNW 19 35 10 19 - - -
01/12:00am - - - - - W 22 41 12 22 - - -
 
Date/Time
CST
Temp
°C
App
Temp
°C
Dew
Point
Rel
Hum
%
Delta-T
°C
Wind Press
QNH
hPa
Press
MSL
hPa
Rain
since 9 am
mm
Dir
 
Spd
km/h
Gust
km/h
Spd
kts
Gust
kts
31/11:30pm - - - - - W 17 35 9 19 - - -
31/11:00pm - - - - - W 19 46 10 25 - - -
31/10:30pm - - - - - WNW 13 32 7 17 - - -
31/10:00pm - - - - - WNW 20 37 11 20 - - -
31/09:30pm - - - - - WNW 19 35 10 19 - - -
31/09:00pm - - - - - WNW 22 50 12 27 - - -
31/08:30pm - - - - - WNW 17 33 9 18 - - -
31/08:00pm - - - - - W 19 50 10 27 - - -
31/07:30pm - - - - - WNW 17 33 9 18 - - -
31/07:00pm - - - - - WNW 22 41 12 22 - - -
31/06:30pm - - - - - W 13 32 7 17 - - -
31/06:00pm - - - - - W 17 39 9 21 - - -
31/05:30pm - - - - - W 15 39 8 21 - - -
31/05:00pm - - - - - W 20 57 11 31 - - -
31/04:30pm - - - - - W 20 41 11 22 - - -
31/04:00pm - - - - - W 15 37 8 20 - - -
31/03:30pm - - - - - W 20 39 11 21 - - -
31/03:00pm - - - - - W 19 41 10 22 - - -
31/02:31pm - - - - - WNW 28 59 15 32 - - -
31/02:30pm - - - - - WNW 26 59 14 32 - - -
31/02:00pm - - - - - NW 24 39 13 21 - - -
31/01:30pm - - - - - W 17 35 9 19 - - -
31/01:00pm - - - - - WNW 19 39 10 21 - - -
31/12:30pm - - - - - W 19 39 10 21 - - -
31/12:00pm - - - - - W 15 35 8 19 - - -
31/11:30am - - - - - W 13 24 7 13 - - -
31/11:25am - - - - - WNW 20 33 11 18 - - -
31/11:00am - - - - - NNW 37 56 20 30 - - -
31/10:30am - - - - - NNW 37 59 20 32 - - -
31/10:02am - - - - - NNW 33 52 18 28 - - -
31/10:00am - - - - - NNW 33 48 18 26 - - -
31/09:30am - - - - - NNW 32 52 17 28 - - -
31/09:00am - - - - - NNW 35 54 19 29 - - -
31/08:30am - - - - - NNW 35 57 19 31 - - -
31/08:00am - - - - - NNW 39 59 21 32 - - -
31/07:32am - - - - - NNW 35 56 19 30 - - -
31/07:30am - - - - - NNW 35 54 19 29 - - -
31/07:07am - - - - - NNW 33 52 18 28 - - -
31/07:00am - - - - - NNW 33 48 18 26 - - -
31/06:30am - - - - - NNW 35 56 19 30 - - -
31/06:03am - - - - - NNW 30 50 16 27 - - -
31/06:00am - - - - - NNW 32 50 17 27 - - -
31/05:30am - - - - - NNW 30 50 16 27 - - -
31/05:25am - - - - - NNW 28 50 15 27 - - -
31/05:00am - - - - - NNW 28 46 15 25 - - -
31/04:30am - - - - - NNW 26 39 14 21 - - -
31/04:00am - - - - - NNW 28 44 15 24 - - -
31/03:30am - - - - - NNW 28 46 15 25 - - -
31/03:00am - - - - - NNW 26 41 14 22 - - -
31/02:30am - - - - - NNW 28 46 15 25 - - -
31/02:00am - - - - - NNW 26 43 14 23 - - -
31/01:30am - - - - - NNW 24 39 13 21 - - -
31/01:00am - - - - - NNW 24 39 13 21 - - -
31/12:30am - - - - - NNW 24 37 13 20 - - -
31/12:00am - - - - - NNW 24 37 13 20 - - -
 
Date/Time
CST
Temp
°C
App
Temp
°C
Dew
Point
Rel
Hum
%
Delta-T
°C
Wind Press
QNH
hPa
Press
MSL
hPa
Rain
since 9 am
mm
Dir
 
Spd
km/h
Gust
km/h
Spd
kts
Gust
kts
30/11:30pm - - - - - NNW 28 43 15 23 - - -
30/11:00pm - - - - - NNW 30 54 16 29 - - -
30/10:56pm - - - - - NNW 32 54 17 29 - - -
30/10:30pm - - - - - NNW 33 50 18 27 - - -
30/10:08pm - - - - - NNW 35 56 19 30 - - -
30/10:00pm - - - - - NNW 33 50 18 27 - - -
30/09:30pm - - - - - NNW 35 52 19 28 - - -
30/09:17pm - - - - - NNW 37 59 20 32 - - -
30/09:00pm - - - - - NNW 33 50 18 27 - - -
30/08:54pm - - - - - NNW 32 50 17 27 - - -
30/08:30pm - - - - - NNW 32 48 17 26 - - -
30/08:11pm - - - - - NNW 30 50 16 27 - - -
30/08:00pm - - - - - NNW 30 46 16 25 - - -
30/07:30pm - - - - - NNW 30 48 16 26 - - -
30/07:27pm - - - - - NNW 30 48 16 26 - - -
30/07:00pm - - - - - NNW 32 46 17 25 - - -
30/06:42pm - - - - - NNW 32 50 17 27 - - -
30/06:30pm - - - - - NNW 32 44 17 24 - - -
30/06:00pm - - - - - NNW 32 50 17 27 - - -
30/05:59pm - - - - - NNW 32 50 17 27 - - -
30/05:30pm - - - - - NNW 30 46 16 25 - - -
30/05:00pm - - - - - NNW 32 46 17 25 - - -
30/04:30pm - - - - - NNW 33 65 18 35 - - -
30/04:00pm - - - - - NNW 33 57 18 31 - - -
30/03:33pm - - - - - NNW 33 54 18 29 - - -
30/03:30pm - - - - - NNW 33 48 18 26 - - -
30/03:00pm - - - - - NNW 32 50 17 27 - - -
30/02:31pm - - - - - NNW 30 48 16 26 - - -
30/02:30pm - - - - - NNW 30 46 16 25 - - -
30/02:00pm - - - - - NNW 26 43 14 23 - - -
30/01:30pm - - - - - NNW 24 44 13 24 - - -
30/01:00pm - - - - - NNW 20 44 11 24 - - -
30/12:30pm - - - - - NNW 22 37 12 20 - - -
30/12:00pm - - - - - NW 24 44 13 24 - - -
30/11:30am - - - - - NW 22 39 12 21 - - -
30/11:00am - - - - - NNW 28 41 15 22 - - -
30/10:45am - - - - - NNW 30 48 16 26 - - -
30/10:30am - - - - - NNW 26 41 14 22 - - -
30/10:00am - - - - - NNW 28 44 15 24 - - -
30/09:30am - - - - - NNW 30 44 16 24 - - -
30/09:00am - - - - - NNW 26 44 14 24 - - -
30/08:30am - - - - - NNW 26 43 14 23 - - -
30/08:00am - - - - - NW 22 37 12 20 - - -
30/07:30am - - - - - NNW 19 33 10 18 - - -
30/07:00am - - - - - NNW 22 35 12 19 - - -
30/06:30am - - - - - NNW 24 35 13 19 - - -
30/06:00am - - - - - NNW 20 32 11 17 - - -
30/05:30am - - - - - NNW 17 33 9 18 - - -
30/05:00am - - - - - NNW 22 33 12 18 - - -
30/04:30am - - - - - NNW 20 30 11 16 - - -
30/04:00am - - - - - NNW 19 30 10 16 - - -
30/03:30am - - - - - NW 15 30 8 16 - - -
30/03:00am - - - - - NW 19 39 10 21 - - -
30/02:30am - - - - - NNW 17 32 9 17 - - -
30/02:00am - - - - - NNW 17 32 9 17 - - -
30/01:30am - - - - - NNW 19 33 10 18 - - -
30/01:00am - - - - - NW 17 26 9 14 - - -
30/12:30am - - - - - NW 20 32 11 17 - - -
30/12:00am - - - - - NNW 20 30 11 16 - - -
 
Date/Time
CST
Temp
°C
App
Temp
°C
Dew
Point
Rel
Hum
%
Delta-T
°C
Wind Press
QNH
hPa
Press
MSL
hPa
Rain
since 9 am
mm
Dir
 
Spd
km/h
Gust
km/h
Spd
kts
Gust
kts
29/11:30pm - - - - - NW 17 30 9 16 - - -
29/11:00pm - - - - - NW 17 32 9 17 - - -
29/10:30pm - - - - - NW 17 28 9 15 - - -
29/10:00pm - - - - - NW 20 37 11 20 - - -
29/09:30pm - - - - - NW 17 33 9 18 - - -
29/09:00pm - - - - - NW 20 33 11 18 - - -
29/08:30pm - - - - - NNW 20 39 11 21 - - -
29/08:00pm - - - - - NNW 24 33 13 18 - - -
29/07:30pm - - - - - NNW 19 33 10 18 - - -
29/07:00pm - - - - - NW 17 35 9 19 - - -
29/06:30pm - - - - - NW 19 37 10 20 - - -
29/06:00pm - - - - - WNW 22 39 12 21 - - -
29/05:30pm - - - - - WNW 15 33 8 18 - - -
29/05:00pm - - - - - NNW 28 46 15 25 - - -
29/04:53pm - - - - - NNW 28 46 15 25 - - -
29/04:30pm - - - - - NNW 17 28 9 15 - - -
29/04:00pm - - - - - NW 20 39 11 21 - - -
29/03:30pm - - - - - NW 19 32 10 17 - - -
29/03:00pm - - - - - NW 20 32 11 17 - - -
29/02:30pm - - - - - NW 20 35 11 19 - - -
29/02:00pm - - - - - NW 20 39 11 21 - - -
29/01:30pm - - - - - NW 22 41 12 22 - - -
29/01:00pm - - - - - NNW 26 44 14 24 - - -
29/12:30pm - - - - - NNW 22 41 12 22 - - -
29/12:00pm - - - - - NNW 28 46 15 25 - - -
29/11:30am - - - - - NNW 28 46 15 25 - - -
29/11:29am - - - - - NNW 28 46 15 25 - - -

Other Formats:

Comma delimited format used in spreadsheet applications
http://www.bom.gov.au/fwo/IDS60801/IDS60801.95679.axf

JavaScript Object Notation format (JSON) in row-major order
http://www.bom.gov.au/fwo/IDS60801/IDS60801.95679.json